createdAt,value
2018-09-06T00:01:33.968Z,92.10
2018-09-06T00:04:02.460Z,92.10
2018-09-06T00:06:30.976Z,92.20
2018-09-06T00:08:59.473Z,92.30
2018-09-06T00:11:27.953Z,92.50
2018-09-06T00:13:56.463Z,92.60
2018-09-06T00:16:25.007Z,92.50
2018-09-06T00:18:53.489Z,92.60
2018-09-06T00:21:21.973Z,92.60
2018-09-06T00:23:50.625Z,92.70
2018-09-06T00:26:19.141Z,92.80
2018-09-06T00:28:47.609Z,92.80
2018-09-06T00:31:16.161Z,92.80
2018-09-06T00:33:44.612Z,93.10
2018-09-06T00:36:13.130Z,92.80
2018-09-06T00:38:41.561Z,92.70
2018-09-06T00:41:09.999Z,92.70
2018-09-06T00:43:38.395Z,92.90
2018-09-06T00:46:07.080Z,93.10
2018-09-06T00:48:35.499Z,93.30
2018-09-06T00:51:03.984Z,93.30
2018-09-06T00:53:32.399Z,93.40
2018-09-06T00:56:00.967Z,93.40
2018-09-06T00:58:29.426Z,93.40
2018-09-06T01:00:57.868Z,93.40
2018-09-06T01:03:26.418Z,93.40
2018-09-06T01:05:54.864Z,93.40
2018-09-06T01:08:23.245Z,93.40
2018-09-06T01:10:51.719Z,93.40
2018-09-06T01:13:20.148Z,93.70
2018-09-06T01:15:48.598Z,93.90
2018-09-06T01:18:17.166Z,94.00
2018-09-06T01:20:45.619Z,94.10
2018-09-06T01:23:14.035Z,94.20
2018-09-06T01:25:49.071Z,94.00
2018-09-06T01:28:19.186Z,94.30
2018-09-06T01:30:47.675Z,94.20
2018-09-06T01:33:16.108Z,94.40
2018-09-06T01:35:49.829Z,94.40
2018-09-06T01:38:18.306Z,94.50
2018-09-06T01:40:46.706Z,94.70
2018-09-06T01:43:15.154Z,94.80
2018-09-06T01:45:43.598Z,95.00
2018-09-06T01:48:12.055Z,95.10
2018-09-06T01:50:40.458Z,95.00
2018-09-06T01:53:09.115Z,95.20
2018-09-06T01:55:37.523Z,95.20
2018-09-06T01:58:05.974Z,95.20
2018-09-06T02:00:34.529Z,95.30
2018-09-06T02:03:02.976Z,95.30
2018-09-06T02:05:36.026Z,95.30
2018-09-06T02:08:05.535Z,95.30
2018-09-06T02:10:33.987Z,95.30
2018-09-06T02:13:02.435Z,95.40
2018-09-06T02:15:30.859Z,95.60
2018-09-06T02:17:59.296Z,95.80
2018-09-06T02:20:27.719Z,96.10
2018-09-06T02:22:56.156Z,95.90
2018-09-06T02:25:24.575Z,96.30
2018-09-06T02:27:52.991Z,96.20
2018-09-06T02:30:21.432Z,96.20
2018-09-06T02:32:49.858Z,96.30
2018-09-06T02:35:18.310Z,96.50
2018-09-06T02:37:46.724Z,96.50
2018-09-06T02:40:20.445Z,96.50
2018-09-06T02:42:48.854Z,96.80
2018-09-06T02:45:17.274Z,97.00
2018-09-06T02:47:51.104Z,97.00
2018-09-06T02:50:24.848Z,97.20
2018-09-06T02:52:54.031Z,97.10
2018-09-06T02:55:23.091Z,97.10
2018-09-06T02:57:51.532Z,97.10
2018-09-06T03:00:25.381Z,97.30
2018-09-06T03:02:53.823Z,97.30
2018-09-06T03:05:22.642Z,97.50
2018-09-06T03:07:51.258Z,97.60
2018-09-06T03:10:20.202Z,97.70
2018-09-06T03:12:48.678Z,97.80
2018-09-06T03:15:17.174Z,97.90
2018-09-06T03:17:45.520Z,98.20
2018-09-06T03:20:13.989Z,98.30
2018-09-06T03:22:42.394Z,98.40
2018-09-06T03:25:10.812Z,98.50
2018-09-06T03:27:39.216Z,98.50
2018-09-06T03:30:07.674Z,98.50
2018-09-06T03:32:36.152Z,98.70
2018-09-06T03:35:04.610Z,98.60
2018-09-06T03:37:33.068Z,98.70
2018-09-06T03:40:01.476Z,98.80
2018-09-06T03:42:29.891Z,98.60
2018-09-06T03:44:58.384Z,98.70
2018-09-06T03:47:26.791Z,98.60
2018-09-06T03:49:55.210Z,98.60
2018-09-06T03:52:23.609Z,98.60
2018-09-06T03:54:52.032Z,98.70
2018-09-06T03:57:20.423Z,98.90
2018-09-06T03:59:48.850Z,99.00
2018-09-06T04:02:17.237Z,98.90
2018-09-06T04:04:45.686Z,98.90
2018-09-06T04:07:14.084Z,98.90
2018-09-06T04:09:42.494Z,99.00
2018-09-06T04:12:10.904Z,99.10
2018-09-06T04:14:39.348Z,99.30
2018-09-06T04:17:07.853Z,99.20
2018-09-06T04:19:36.266Z,99.30
2018-09-06T04:22:04.727Z,99.60
2018-09-06T04:24:33.157Z,99.50
2018-09-06T04:27:01.547Z,99.60
2018-09-06T04:29:29.958Z,99.50
2018-09-06T04:31:58.346Z,99.50
2018-09-06T04:34:26.808Z,99.60
2018-09-06T04:36:55.271Z,99.50
2018-09-06T04:39:23.688Z,99.50
2018-09-06T04:41:52.099Z,99.50
2018-09-06T04:44:20.523Z,99.50
2018-09-06T04:46:50.807Z,99.60
2018-09-06T04:49:19.679Z,99.50
2018-09-06T04:51:48.974Z,99.40
2018-09-06T04:54:17.582Z,99.50
2018-09-06T04:56:45.999Z,99.50
2018-09-06T04:59:14.402Z,99.50
2018-09-06T05:01:42.877Z,99.50
2018-09-06T05:04:11.320Z,99.60
2018-09-06T05:06:40.124Z,99.50
2018-09-06T05:09:10.214Z,99.20
2018-09-06T05:11:39.391Z,99.00
2018-09-06T05:14:07.778Z,99.00
2018-09-06T05:16:36.196Z,98.90
2018-09-06T05:19:04.714Z,98.90
2018-09-06T05:21:33.128Z,98.80
2018-09-06T05:24:01.551Z,98.80
2018-09-06T05:26:30.012Z,98.70
2018-09-06T05:28:58.398Z,98.70
2018-09-06T05:31:26.800Z,98.60
2018-09-06T05:33:55.191Z,98.60
2018-09-06T05:36:23.718Z,98.30
2018-09-06T05:38:52.156Z,97.90
2018-09-06T05:41:20.602Z,97.70
2018-09-06T05:43:49.047Z,97.70
2018-09-06T05:46:17.555Z,97.70
2018-09-06T05:48:46.038Z,97.50
2018-09-06T05:51:14.490Z,97.90
2018-09-06T05:53:42.914Z,97.40
2018-09-06T05:56:11.378Z,97.20
2018-09-06T05:58:39.862Z,97.30
2018-09-06T06:01:08.380Z,97.10
2018-09-06T06:03:36.842Z,96.80
2018-09-06T06:06:05.295Z,96.90
2018-09-06T06:08:40.180Z,97.00
2018-09-06T06:11:08.711Z,97.00
2018-09-06T06:13:37.215Z,96.70
2018-09-06T06:16:05.734Z,96.70
2018-09-06T06:18:34.447Z,96.70
2018-09-06T06:21:02.893Z,96.70
2018-09-06T06:23:31.376Z,96.60
2018-09-06T06:25:59.853Z,96.40
2018-09-06T06:28:28.448Z,96.60
2018-09-06T06:30:56.892Z,96.70
2018-09-06T06:33:25.362Z,96.70
2018-09-06T06:35:53.818Z,96.50
2018-09-06T06:38:22.273Z,96.50
2018-09-06T06:40:50.710Z,96.10
2018-09-06T06:43:19.199Z,95.90
2018-09-06T06:45:47.681Z,95.50
2018-09-06T06:48:16.151Z,95.20
2018-09-06T06:50:44.570Z,94.70
2018-09-06T06:53:13.000Z,94.70
2018-09-06T06:55:41.744Z,95.00
2018-09-06T06:58:10.204Z,94.90
2018-09-06T07:00:39.594Z,94.70
2018-09-06T07:03:08.959Z,94.30
2018-09-06T07:05:37.616Z,93.80
2018-09-06T07:08:06.862Z,93.10
2018-09-06T07:10:35.302Z,92.40
2018-09-06T07:13:03.854Z,91.80
2018-09-06T07:15:32.279Z,91.80
2018-09-06T07:18:00.695Z,91.80
2018-09-06T07:20:29.086Z,91.60
2018-09-06T07:22:57.731Z,91.60
2018-09-06T07:25:26.347Z,91.50
2018-09-06T07:27:54.768Z,91.40
2018-09-06T07:30:23.196Z,91.10
2018-09-06T07:32:51.877Z,90.80
2018-09-06T07:35:20.370Z,90.40
2018-09-06T07:37:48.805Z,90.10
2018-09-06T07:40:17.264Z,89.00
2018-09-06T07:42:45.723Z,89.20
2018-09-06T07:45:14.190Z,89.30
2018-09-06T07:47:42.649Z,88.20
2018-09-06T07:50:11.234Z,88.10
2018-09-06T07:52:39.587Z,87.40
2018-09-06T07:55:08.090Z,87.20
2018-09-06T07:57:36.551Z,86.30
2018-09-06T08:00:05.274Z,86.00
2018-09-06T08:02:33.714Z,85.90
2018-09-06T08:05:02.202Z,85.10
2018-09-06T08:07:30.666Z,83.70
2018-09-06T08:09:59.136Z,82.00
2018-09-06T08:12:27.572Z,82.00
2018-09-06T08:14:56.055Z,81.30
2018-09-06T08:17:24.494Z,81.70
2018-09-06T08:19:52.990Z,82.50
2018-09-06T08:22:21.430Z,82.40
2018-09-06T08:24:50.005Z,81.80
2018-09-06T08:27:18.456Z,82.70
2018-09-06T08:29:46.910Z,82.20
2018-09-06T08:32:15.386Z,81.40
2018-09-06T08:34:43.929Z,80.60
2018-09-06T08:37:12.397Z,79.70
2018-09-06T08:39:40.824Z,78.20
2018-09-06T08:42:09.240Z,78.30
2018-09-06T08:44:37.659Z,78.00
2018-09-06T08:47:06.133Z,77.20
2018-09-06T08:49:34.582Z,77.20
2018-09-06T08:52:03.080Z,76.60
2018-09-06T08:54:31.484Z,76.10
2018-09-06T08:56:59.903Z,74.70
2018-09-06T08:59:28.347Z,75.10
2018-09-06T09:01:56.796Z,74.30
2018-09-06T09:04:25.242Z,74.40
2018-09-06T09:09:37.425Z,74.70
2018-09-06T09:12:05.903Z,72.90
2018-09-06T09:14:34.407Z,72.50
2018-09-06T09:17:02.878Z,71.20
2018-09-06T09:19:31.292Z,71.10
2018-09-06T09:21:59.841Z,71.30
2018-09-06T09:24:28.194Z,71.10
2018-09-06T09:26:56.660Z,71.10
2018-09-06T09:29:25.155Z,70.10
2018-09-06T09:31:53.626Z,69.20
2018-09-06T09:34:22.048Z,69.30
2018-09-06T09:36:50.555Z,68.40
2018-09-06T09:39:19.048Z,69.10
2018-09-06T09:41:47.544Z,68.60
2018-09-06T09:44:15.986Z,68.20
2018-09-06T09:49:12.244Z,66.90
2018-09-06T09:51:40.779Z,67.70
2018-09-06T09:54:09.330Z,66.70
2018-09-06T09:56:37.832Z,66.30
2018-09-06T09:59:06.352Z,66.50
2018-09-06T10:01:40.101Z,66.50
2018-09-06T10:04:13.747Z,66.60
2018-09-06T10:06:47.613Z,66.10
2018-09-06T10:09:21.134Z,65.00
2018-09-06T10:11:49.646Z,63.80
2018-09-06T10:14:18.195Z,63.60
2018-09-06T10:16:47.179Z,62.60
2018-09-06T10:19:16.156Z,62.20
2018-09-06T10:21:44.712Z,62.80
2018-09-06T10:24:13.216Z,63.60
2018-09-06T10:26:41.767Z,63.50
2018-09-06T10:29:10.258Z,64.40
2018-09-06T10:31:38.767Z,63.50
2018-09-06T10:34:07.219Z,62.90
2018-09-06T10:36:35.652Z,63.10
2018-09-06T10:39:04.805Z,62.20
2018-09-06T10:41:33.319Z,61.80
2018-09-06T10:44:01.728Z,61.60
2018-09-06T10:46:30.203Z,61.40
2018-09-06T10:48:58.666Z,62.60
2018-09-06T10:51:27.078Z,62.10
2018-09-06T10:53:55.520Z,62.30
2018-09-06T10:56:24.003Z,62.20
2018-09-06T10:58:52.519Z,62.70
2018-09-06T11:01:20.987Z,63.40
2018-09-06T11:03:50.723Z,63.40
2018-09-06T11:06:19.260Z,63.30
2018-09-06T11:08:47.718Z,63.20
2018-09-06T11:11:16.120Z,63.90
2018-09-06T11:13:44.558Z,63.20
2018-09-06T11:16:12.986Z,63.70
2018-09-06T11:18:41.410Z,63.80
2018-09-06T11:21:09.978Z,64.30
2018-09-06T11:23:38.311Z,64.30
2018-09-06T11:26:06.763Z,64.70
2018-09-06T11:28:35.192Z,65.30
2018-09-06T11:31:03.591Z,65.10
2018-09-06T11:33:32.018Z,65.40
2018-09-06T11:36:00.479Z,67.10
2018-09-06T11:38:28.956Z,70.00
2018-09-06T11:40:57.360Z,69.40
2018-09-06T11:43:25.842Z,70.60
2018-09-06T11:45:54.279Z,74.30
2018-09-06T11:48:22.766Z,77.30
2018-09-06T11:50:51.190Z,79.00
2018-09-06T11:53:19.614Z,82.10
2018-09-06T11:55:48.016Z,82.30
2018-09-06T11:58:16.456Z,81.60
2018-09-06T12:00:45.390Z,79.10
2018-09-06T12:03:13.887Z,77.90
2018-09-06T12:05:42.363Z,77.10
2018-09-06T12:08:10.786Z,76.00
2018-09-06T12:10:39.218Z,76.00
2018-09-06T12:13:07.621Z,75.30
2018-09-06T12:15:36.092Z,75.00
2018-09-06T12:18:04.570Z,74.60
2018-09-06T12:20:33.016Z,74.50
2018-09-06T12:23:01.439Z,73.80
2018-09-06T12:25:29.929Z,73.10
2018-09-06T12:27:58.399Z,72.00
2018-09-06T12:30:26.942Z,71.90
2018-09-06T12:32:55.354Z,71.70
2018-09-06T12:35:23.832Z,70.80
2018-09-06T12:37:52.247Z,70.00
2018-09-06T12:40:20.696Z,68.40
2018-09-06T12:42:49.087Z,68.80
2018-09-06T12:45:17.578Z,68.70
2018-09-06T12:47:46.290Z,66.40
2018-09-06T12:50:14.797Z,63.70
2018-09-06T12:52:43.227Z,63.70
2018-09-06T12:55:11.726Z,63.20
2018-09-06T12:57:40.182Z,60.40
2018-09-06T13:00:08.754Z,60.50
2018-09-06T13:02:37.202Z,60.20
2018-09-06T13:05:06.048Z,60.10
2018-09-06T13:07:34.447Z,58.90
2018-09-06T13:10:02.937Z,59.80
2018-09-06T13:12:31.357Z,58.00
2018-09-06T13:14:59.839Z,57.50
2018-09-06T13:17:28.266Z,57.00
2018-09-06T13:19:56.826Z,57.80
2018-09-06T13:22:25.275Z,57.10
2018-09-06T13:24:53.678Z,56.60
2018-09-06T13:27:22.214Z,56.00
2018-09-06T13:29:50.546Z,55.10
2018-09-06T13:32:18.955Z,54.00
2018-09-06T13:34:47.360Z,52.50
2018-09-06T13:37:15.808Z,53.20
2018-09-06T13:39:44.224Z,52.90
2018-09-06T13:42:12.630Z,53.00
2018-09-06T13:44:41.081Z,52.80
2018-09-06T13:47:09.508Z,53.20
2018-09-06T13:49:37.892Z,53.80
2018-09-06T13:52:06.498Z,53.10
2018-09-06T13:54:34.914Z,53.60
2018-09-06T13:57:03.351Z,53.50
2018-09-06T13:59:31.763Z,52.20
2018-09-06T14:02:00.206Z,51.50
2018-09-06T14:04:28.596Z,49.60
2018-09-06T14:06:57.019Z,47.70
2018-09-06T14:09:25.402Z,49.00
2018-09-06T14:11:53.826Z,49.00
2018-09-06T14:14:22.215Z,49.60
2018-09-06T14:16:50.752Z,48.90
2018-09-06T14:19:19.150Z,48.90
2018-09-06T14:21:47.570Z,47.60
2018-09-06T14:24:16.041Z,47.50
2018-09-06T14:26:44.386Z,47.80
2018-09-06T14:29:12.786Z,48.60
2018-09-06T14:31:41.200Z,47.90
2018-09-06T14:34:09.594Z,48.70
2018-09-06T14:36:38.061Z,48.60
2018-09-06T14:39:07.553Z,46.20
2018-09-06T14:41:36.137Z,46.20
2018-09-06T14:44:04.595Z,45.30
2018-09-06T14:46:32.962Z,45.20
2018-09-06T14:49:01.366Z,45.60
2018-09-06T14:51:29.796Z,45.00
2018-09-06T14:53:58.200Z,45.40
2018-09-06T14:56:26.648Z,45.80
2018-09-06T14:58:55.080Z,46.60
2018-09-06T15:01:23.562Z,47.30
2018-09-06T15:03:51.964Z,47.30
2018-09-06T15:06:20.429Z,47.20
2018-09-06T15:08:48.850Z,48.70
2018-09-06T15:11:17.254Z,47.20
2018-09-06T15:13:45.759Z,47.10
2018-09-06T15:16:14.108Z,47.10
2018-09-06T15:18:42.572Z,47.20
2018-09-06T15:21:10.992Z,47.10
2018-09-06T15:23:40.037Z,48.20
2018-09-06T15:26:08.446Z,47.80
2018-09-06T15:28:36.863Z,48.30
2018-09-06T15:31:05.338Z,49.60
2018-09-06T15:33:33.864Z,48.50
2018-09-06T15:36:02.358Z,49.00
2018-09-06T15:38:30.837Z,48.70
2018-09-06T15:40:59.307Z,49.20
2018-09-06T15:43:27.762Z,49.10
2018-09-06T15:45:56.211Z,49.10
2018-09-06T15:48:24.939Z,49.70
2018-09-06T15:50:53.407Z,58.90
2018-09-06T15:53:21.859Z,65.30
2018-09-06T15:55:50.399Z,68.60
2018-09-06T15:58:18.823Z,70.10
2018-09-06T16:00:47.259Z,74.10
2018-09-06T16:03:15.760Z,82.00
2018-09-06T16:05:44.225Z,91.00
2018-09-06T16:08:12.707Z,93.10
2018-09-06T16:10:41.154Z,94.50
2018-09-06T16:13:09.622Z,94.00
2018-09-06T16:15:38.085Z,96.40
2018-09-06T16:18:06.593Z,97.30
2018-09-06T16:20:35.063Z,97.20
2018-09-06T16:23:03.596Z,97.30
2018-09-06T16:25:32.046Z,97.40
2018-09-06T16:28:00.542Z,97.50
2018-09-06T16:30:29.015Z,97.20
2018-09-06T16:32:57.515Z,97.60
2018-09-06T16:35:25.992Z,97.20
2018-09-06T16:37:54.419Z,97.90
2018-09-06T16:40:22.826Z,97.80
2018-09-06T16:42:51.264Z,98.10
2018-09-06T16:45:19.726Z,98.10
2018-09-06T16:47:48.188Z,99.30
2018-09-06T16:50:16.574Z,99.90
2018-09-06T16:52:44.996Z,99.90
2018-09-06T16:55:13.467Z,99.90
2018-09-06T16:57:41.878Z,99.90
2018-09-06T17:00:10.344Z,99.90
2018-09-06T17:02:38.750Z,99.90
2018-09-06T17:05:07.228Z,99.90
2018-09-06T17:07:35.670Z,99.90
2018-09-06T17:10:04.439Z,99.90
2018-09-06T17:12:32.932Z,99.90
2018-09-06T17:15:01.381Z,99.90
2018-09-06T17:17:29.804Z,99.90
2018-09-06T17:19:58.255Z,99.90
2018-09-06T17:22:26.920Z,99.90
2018-09-06T17:24:55.348Z,99.90
2018-09-06T17:27:23.780Z,99.90
2018-09-06T17:29:52.264Z,99.90
2018-09-06T17:32:20.759Z,99.90
2018-09-06T17:34:49.160Z,99.90
2018-09-06T17:37:17.627Z,99.90
2018-09-06T17:39:46.095Z,99.90
2018-09-06T17:42:14.593Z,99.90
2018-09-06T17:44:43.084Z,99.90
2018-09-06T17:47:11.611Z,99.90
2018-09-06T17:49:40.095Z,99.90
2018-09-06T17:52:08.591Z,99.90
2018-09-06T17:54:37.090Z,99.90
2018-09-06T17:57:05.608Z,99.90
2018-09-06T17:59:34.125Z,99.90
2018-09-06T18:02:02.681Z,99.90
2018-09-06T18:04:31.158Z,99.90
2018-09-06T18:06:59.628Z,99.90
2018-09-06T18:09:28.215Z,99.90
2018-09-06T18:11:56.799Z,99.90
2018-09-06T18:14:26.276Z,99.90
2018-09-06T18:16:54.800Z,99.90
2018-09-06T18:19:23.305Z,99.90
2018-09-06T18:21:51.866Z,99.90
2018-09-06T18:24:20.450Z,99.90
2018-09-06T18:26:48.934Z,99.90
2018-09-06T18:29:17.500Z,99.90
2018-09-06T18:31:46.049Z,99.90
2018-09-06T18:34:14.531Z,99.90
2018-09-06T18:36:43.019Z,99.90
2018-09-06T18:39:11.484Z,99.90
2018-09-06T18:41:39.988Z,99.90
2018-09-06T18:44:08.543Z,99.90
2018-09-06T18:46:36.978Z,99.90
2018-09-06T18:49:05.575Z,99.90
2018-09-06T18:51:34.116Z,99.90
2018-09-06T18:54:02.626Z,99.90
2018-09-06T18:56:31.094Z,99.90
2018-09-06T18:58:59.592Z,99.90
2018-09-06T19:01:28.079Z,99.90
2018-09-06T19:03:56.540Z,99.90
2018-09-06T19:06:25.057Z,99.90
2018-09-06T19:08:53.526Z,99.90
2018-09-06T19:11:22.040Z,99.90
2018-09-06T19:13:50.502Z,99.90
2018-09-06T19:16:18.976Z,99.90
2018-09-06T19:18:47.526Z,99.90
2018-09-06T19:21:16.016Z,99.90
2018-09-06T19:23:44.494Z,99.90
2018-09-06T19:26:13.021Z,99.90
2018-09-06T19:28:41.482Z,99.90
2018-09-06T19:31:10.012Z,99.90
2018-09-06T19:33:38.534Z,99.90
2018-09-06T19:36:07.196Z,99.90
2018-09-06T19:38:35.648Z,99.90
2018-09-06T19:41:04.137Z,99.90
2018-09-06T19:43:32.643Z,99.90
2018-09-06T19:46:01.137Z,99.90
2018-09-06T19:48:29.662Z,99.90
2018-09-06T19:50:58.116Z,99.90
2018-09-06T19:53:26.638Z,99.90
2018-09-06T19:55:55.116Z,99.90
2018-09-06T19:58:23.654Z,99.90
2018-09-06T20:00:52.130Z,99.90
2018-09-06T20:03:20.627Z,99.90
2018-09-06T20:05:49.095Z,99.90
2018-09-06T20:08:17.639Z,99.90
2018-09-06T20:10:46.064Z,99.90
2018-09-06T20:13:14.585Z,99.90
2018-09-06T20:15:43.085Z,99.90
2018-09-06T20:18:11.576Z,99.90
2018-09-06T20:20:40.038Z,99.90
2018-09-06T20:23:08.540Z,99.90
2018-09-06T20:25:37.001Z,99.90
2018-09-06T20:28:05.641Z,99.90
2018-09-06T20:30:34.179Z,99.90
2018-09-06T20:33:02.930Z,99.90
2018-09-06T20:35:31.350Z,99.90
2018-09-06T20:37:59.780Z,99.90
2018-09-06T20:40:28.195Z,99.90
2018-09-06T20:42:56.630Z,99.90
2018-09-06T20:45:25.083Z,99.90
2018-09-06T20:47:53.549Z,99.90
2018-09-06T20:50:21.977Z,99.90
2018-09-06T20:52:50.463Z,99.90
2018-09-06T20:55:18.884Z,99.90
2018-09-06T20:57:47.313Z,99.90
2018-09-06T21:00:15.732Z,99.90
2018-09-06T21:02:44.151Z,99.90
2018-09-06T21:05:12.599Z,99.90
2018-09-06T21:07:41.047Z,99.90
2018-09-06T21:10:09.516Z,99.90
2018-09-06T21:12:37.934Z,99.90
2018-09-06T21:15:06.447Z,99.90
2018-09-06T21:17:34.908Z,99.90
2018-09-06T21:20:03.415Z,99.90
2018-09-06T21:22:31.833Z,99.90
2018-09-06T21:25:00.311Z,99.90
2018-09-06T21:27:28.801Z,99.90
2018-09-06T21:29:57.365Z,99.90
2018-09-06T21:32:25.762Z,99.90
2018-09-06T21:34:54.228Z,99.90
2018-09-06T21:37:22.708Z,99.90
2018-09-06T21:39:51.206Z,99.90
2018-09-06T21:42:19.651Z,99.90
2018-09-06T21:44:48.139Z,99.90
2018-09-06T21:47:16.582Z,99.90
2018-09-06T21:49:45.060Z,99.90
2018-09-06T21:52:13.508Z,99.90
2018-09-06T21:54:41.995Z,99.90
2018-09-06T21:57:10.467Z,99.90
2018-09-06T21:59:38.952Z,99.90
2018-09-06T22:02:10.708Z,99.90
2018-09-06T22:04:39.199Z,99.90
2018-09-06T22:07:07.693Z,99.90
2018-09-06T22:09:36.164Z,99.90
2018-09-06T22:12:04.723Z,99.90
2018-09-06T22:14:33.219Z,99.90
2018-09-06T22:17:01.779Z,99.90
2018-09-06T22:19:30.284Z,99.90
2018-09-06T22:21:58.774Z,99.90
2018-09-06T22:24:27.295Z,99.90
2018-09-06T22:26:55.879Z,99.90
2018-09-06T22:29:24.403Z,99.90
2018-09-06T22:31:52.895Z,99.90
2018-09-06T22:34:21.352Z,99.90
2018-09-06T22:36:49.882Z,99.90
2018-09-06T22:39:18.342Z,99.90
2018-09-06T22:41:46.840Z,99.90
2018-09-06T22:44:15.327Z,99.90
2018-09-06T22:46:43.891Z,99.90
2018-09-06T22:49:12.384Z,99.90
2018-09-06T22:51:40.879Z,99.90
2018-09-06T22:54:09.338Z,99.90
2018-09-06T22:56:37.815Z,99.90
2018-09-06T22:59:06.310Z,99.90
2018-09-06T23:01:34.814Z,99.90
2018-09-06T23:04:03.332Z,99.90
2018-09-06T23:06:31.970Z,99.90
2018-09-06T23:09:00.467Z,99.90
2018-09-06T23:11:28.940Z,99.90
2018-09-06T23:13:57.515Z,99.90
2018-09-06T23:16:26.022Z,99.90
2018-09-06T23:18:54.535Z,99.90
2018-09-06T23:21:22.990Z,99.90
2018-09-06T23:23:51.447Z,99.90
2018-09-06T23:26:19.938Z,99.90
2018-09-06T23:28:48.422Z,99.90
2018-09-06T23:31:16.916Z,99.90
2018-09-06T23:33:45.441Z,99.90
2018-09-06T23:36:13.942Z,99.90
2018-09-06T23:38:42.450Z,99.90
2018-09-06T23:41:10.928Z,99.90
2018-09-06T23:43:39.594Z,99.90
2018-09-06T23:46:08.137Z,99.90
2018-09-06T23:48:36.587Z,99.90
2018-09-06T23:51:05.115Z,99.90
2018-09-06T23:53:33.618Z,99.90
2018-09-06T23:56:02.075Z,99.90
2018-09-06T23:58:30.556Z,99.90
